Stations météo

réclame
Mon MeteoGroup
Sumburgh, Grande-Bretagne (3003): Température de l'air & dewpoint: 16.02.2018 03:00:00 - 22.02.2018 03:00:00 (GMT)Sumburgh, Grande-Bretagne (3003): Vitesse du vent: 16.02.2018 03:00:00 - 22.02.2018 03:00:00 (GMT)Sumburgh, Grande-Bretagne (3003): Direction du vent: 16.02.2018 03:00:00 - 22.02.2018 03:00:00 (GMT)Sumburgh, Grande-Bretagne (3003): visibility: 16.02.2018 03:00:00 - 22.02.2018 03:00:00 (GMT)
Date & Time tt [°C] td [°C] ff [km/h] ff [knt] dd vv [km]
22.02.2018 03:00:00 5,0 2,0 21 11 S 10
22.02.2018 02:00:00 5,0 2,0 24 13 S 10
22.02.2018 01:00:00 5,0 2,0 21 11 S 10
22.02.2018 00:00:00 6,0 3,0 21 11 S 10
21.02.2018 23:00:00 5,0 3,0 15 8 S 10
21.02.2018 22:00:00 5,0 3,0 15 8 S 10
21.02.2018 21:00:00 5,0 2,0 13 7 S 10
21.02.2018 20:00:00 4,0 2,0 11 6 SSW 10
21.02.2018 19:00:00 5,0 2,0 9 5 SSW 10
21.02.2018 18:00:00 5,0 2,0 9 5 S 10
21.02.2018 17:00:00 5,0 2,0 5 3 SSW 10
21.02.2018 16:00:00 7,0 3,0 8 4 SW 10
21.02.2018 15:00:00 7,0 3,0 9 5 SW 10
21.02.2018 14:00:00 7,0 3,0 9 5 SW 10
21.02.2018 13:00:00 7,0 3,0 8 4 SW 10
21.02.2018 12:00:00 7,0 2,0 5 3 - 10
21.02.2018 11:00:00 7,0 2,0 4 2 - 10
21.02.2018 10:00:00 6,0 2,0 5 3 - 10
21.02.2018 09:00:00 3,0 1,0 0 0 N 10
21.02.2018 08:00:00 2,0 0,0 8 4 N 10
21.02.2018 07:00:00 2,0 -1,0 4 2 N 10
21.02.2018 06:00:00 4,0 1,0 8 4 NNW 10
21.02.2018 05:00:00 4,0 2,0 8 4 NW 10
21.02.2018 04:00:00 2,0 1,0 4 2 N 10
21.02.2018 03:00:00 3,0 1,0 2 1 - 10
21.02.2018 02:00:00 6,0 2,0 11 6 NW 10
21.02.2018 01:00:00 6,0 2,0 26 14 NW 10
21.02.2018 00:00:00 6,0 2,0 21 11 NW 10
20.02.2018 23:00:00 6,0 2,0 15 8 NW 10
20.02.2018 22:00:00 6,0 2,0 18 10 NW 10
20.02.2018 21:00:00 6,0 2,0 18 10 NW 10
20.02.2018 20:00:00 6,0 2,0 18 10 NW 10
20.02.2018 19:00:00 7,0 3,0 18 10 NW 10
20.02.2018 18:00:00 7,0 3,0 18 10 NW 10
20.02.2018 17:00:00 7,0 4,0 18 10 NW 10
20.02.2018 16:00:00 7,0 5,0 16 9 WNW 10
20.02.2018 15:00:00 8,0 4,0 21 11 WNW 10
20.02.2018 14:00:00 8,0 5,0 18 10 WNW 10
20.02.2018 13:00:00 8,0 5,0 18 10 WNW 10
20.02.2018 12:00:00 8,0 6,0 5 3 SW 10
20.02.2018 11:00:00 7,0 6,0 11 6 W 10
20.02.2018 10:00:00 7,0 5,0 9 5 W 10
20.02.2018 09:00:00 6,0 5,0 0 0 N 10
20.02.2018 08:00:00 5,0 4,0 5 3 N 10
20.02.2018 07:00:00 5,0 4,0 9 5 N 10
20.02.2018 06:00:00 5,0 4,0 18 10 NNE 10
20.02.2018 05:00:00 5,0 4,0 15 8 NNE 10
20.02.2018 04:00:00 4,0 3,0 18 10 N 5
20.02.2018 03:00:00 6,0 6,0 21 11 S 5
20.02.2018 02:00:00 6,0 5,0 26 14 S 8
20.02.2018 01:00:00 6,0 5,0 26 14 S 3,0
20.02.2018 00:00:00 6,0 5,0 37 20 SSE 10
19.02.2018 23:00:00 6,0 5,0 34 18 SSE 6
19.02.2018 22:00:00 6,0 5,0 35 19 SSE 6
19.02.2018 21:00:00 6,0 5,0 31 17 SSE 9
19.02.2018 20:00:00 6,0 4,0 26 14 SSE 10
19.02.2018 19:00:00 6,0 4,0 29 16 SSE 10
19.02.2018 18:00:00 6,0 4,0 29 16 SSE 10
19.02.2018 17:00:00 6,0 4,0 28 15 SSE 10
19.02.2018 16:00:00 6,0 4,0 29 16 SE 10
19.02.2018 15:00:00 7,0 4,0 34 18 SE 10
19.02.2018 14:00:00 7,0 3,0 34 18 SE 10
19.02.2018 13:00:00 7,0 4,0 29 16 SE 10
19.02.2018 12:00:00 7,0 4,0 29 16 SE 10
19.02.2018 11:00:00 6,0 3,0 28 15 SE 10
19.02.2018 10:00:00 6,0 3,0 28 15 SE 10
19.02.2018 09:00:00 6,0 3,0 29 16 SE 10
19.02.2018 08:00:00 6,0 3,0 24 13 SE 10
19.02.2018 07:00:00 6,0 3,0 24 13 SE 10
19.02.2018 06:00:00 6,0 3,0 24 13 SE 10
19.02.2018 05:00:00 5,0 2,0 22 12 SE 10
19.02.2018 04:00:00 6,0 3,0 24 13 SE 10
19.02.2018 03:00:00 6,0 3,0 22 12 SE 10
19.02.2018 02:00:00 5,0 3,0 21 11 SE 10
19.02.2018 01:00:00 5,0 3,0 21 11 SE 10
19.02.2018 00:00:00 5,0 3,0 22 12 SE 10
18.02.2018 23:00:00 5,0 3,0 22 12 SE 10
18.02.2018 22:00:00 5,0 3,0 16 9 SE 10
18.02.2018 21:00:00 5,0 2,0 13 7 SE 10
18.02.2018 20:00:00 4,0 2,0 11 6 SE 10
18.02.2018 19:00:00 4,0 2,0 8 4 SSE 10
18.02.2018 18:00:00 4,0 1,0 13 7 SE 10
18.02.2018 17:00:00 - - - - - -
18.02.2018 16:00:00 6,0 2,0 8 4 SSE 10
18.02.2018 15:00:00 7,0 2,0 11 6 S 10
18.02.2018 14:00:00 6,0 2,0 13 7 SSW 10
18.02.2018 13:00:00 6,0 3,0 15 8 SW 10
18.02.2018 12:00:00 6,0 3,0 13 7 SSW 10
18.02.2018 11:00:00 6,0 3,0 16 9 SW 10
18.02.2018 10:00:00 5,0 2,0 22 12 SW 10
18.02.2018 09:00:00 6,0 3,0 18 10 SW 10
18.02.2018 08:00:00 5,0 2,0 24 13 WSW 10
18.02.2018 07:00:00 5,0 2,0 21 11 WSW 10
18.02.2018 06:00:00 6,0 3,0 24 13 WSW 10
18.02.2018 05:00:00 5,0 1,0 24 13 W 10
18.02.2018 04:00:00 5,0 1,0 24 13 WSW 10
18.02.2018 03:00:00 4,0 1,0 8 4 WNW 10
18.02.2018 02:00:00 5,0 1,0 18 10 WNW 10
18.02.2018 01:00:00 5,0 2,0 29 16 W 10
18.02.2018 00:00:00 4,0 1,0 24 13 SW 10
17.02.2018 23:00:00 5,0 2,0 28 15 W 10
17.02.2018 22:00:00 4,0 2,0 28 15 W 10
17.02.2018 21:00:00 5,0 3,0 29 16 SW 10
17.02.2018 20:00:00 5,0 3,0 28 15 SW 10
17.02.2018 19:00:00 4,0 2,0 29 16 W 10
17.02.2018 18:00:00 4,0 2,0 42 23 WSW 3,1
17.02.2018 17:00:00 5,0 3,0 31 17 W 10
17.02.2018 16:00:00 6,0 3,0 34 18 SW 10
17.02.2018 15:00:00 6,0 3,0 34 18 WSW 10
17.02.2018 14:00:00 6,0 3,0 28 15 SW 10
17.02.2018 13:00:00 7,0 3,0 26 14 SW 10
17.02.2018 12:00:00 7,0 4,0 31 17 SW 10
17.02.2018 11:00:00 7,0 4,0 26 14 SSW 10
17.02.2018 10:00:00 7,0 4,0 24 13 SW 10
17.02.2018 09:00:00 6,0 4,0 26 14 SW 10
17.02.2018 08:00:00 6,0 4,0 28 15 SW 10
17.02.2018 07:00:00 6,0 4,0 26 14 SSW 10
17.02.2018 06:00:00 6,0 4,0 29 16 SSW 10
17.02.2018 05:00:00 6,0 4,0 31 17 SSW 10
17.02.2018 04:00:00 6,0 4,0 34 18 S 10
17.02.2018 03:00:00 6,0 4,0 29 16 SSW 9
17.02.2018 02:00:00 6,0 3,0 35 19 S 10
17.02.2018 01:00:00 6,0 3,0 28 15 S 10
17.02.2018 00:00:00 6,0 4,0 28 15 S 10
16.02.2018 23:00:00 6,0 3,0 24 13 S 10
16.02.2018 22:00:00 6,0 3,0 24 13 S 10
16.02.2018 21:00:00 6,0 3,0 22 12 SSW 10
16.02.2018 20:00:00 6,0 3,0 24 13 SSW 10
16.02.2018 19:00:00 5,0 3,0 21 11 SSW 10
16.02.2018 18:00:00 5,0 2,0 24 13 SSW 10
16.02.2018 17:00:00 5,0 2,0 26 14 SW 10
16.02.2018 16:00:00 4,0 2,0 16 9 WSW 10
16.02.2018 15:00:00 6,0 3,0 31 17 SW 10
16.02.2018 14:00:00 4,0 2,0 18 10 WSW 10
16.02.2018 13:00:00 6,0 3,0 35 19 WSW 10
16.02.2018 12:00:00 6,0 3,0 37 20 WSW 10
16.02.2018 11:00:00 5,0 2,0 29 16 WSW 10
16.02.2018 10:00:00 6,0 2,0 34 18 WSW 10
16.02.2018 09:00:00 6,0 1,0 41 22 W 10
16.02.2018 08:00:00 6,0 2,0 41 22 WSW 10
16.02.2018 07:00:00 5,0 2,0 39 21 WSW 10
16.02.2018 06:00:00 6,0 2,0 39 21 W 10
16.02.2018 05:00:00 6,0 3,0 39 21 WSW 10
16.02.2018 04:00:00 6,0 3,0 37 20 WSW 10
16.02.2018 03:00:00 7,0 3,0 44 24 WSW 10

tt = Température de l'air
td = dewpoint
ff = Vitesse du vent
dd = Direction du vent
vv = visibility

stations d'obs. à proximité